CMA CGM Homere — MQBL6 — position and weather

sailwx.info

Track history (hours):
 
Tides and Currents Weather Stations Pressure Air Temp Water Temp Dewpoint Dewpoint Depression Visibility Wind Speed Wind Dir Waves Ship Positions

CMA CGM Homere

Last reported at 2014-Nov-02 12:08 UTC. Time now 2014-Nov-24 04:07 UTC.
Position N 17°26' W 063°04'.
Warning: this ship's position is 21 days out of date.

Length 170 m; draft 9.1 m.

Type: Ship (hazmat cat A). MMSI: 235052314.

Date/timePositionNaut miles runAvg speedWind from/ knotsBaromVisibWave heightAir tempDewpointWater temp
2014-Nov-02 12:08N 17°26' W 063°04'1118.2
2014-Nov-02 11:33N 17°36' W 063°05'1818.1
2014-Nov-02 10:33N 17°55' W 063°05'6 3.2
2014-Nov-02 08:32N 18°01' W 063°03'0 0.0
2014-Nov-02 06:15N 18°01' W 063°03'0 0.0
2014-Nov-02 04:20N 18°01' W 063°03'0 0.0
2014-Nov-02 03:09N 18°01' W 063°03'0 0.0
2014-Nov-02 02:23N 18°01' W 063°03'0 0.0
2014-Nov-02 01:29N 18°01' W 063°03'0 0.0
2014-Nov-02 00:17N 18°01' W 063°03'0 0.0
2014-Nov-01 23:26N 18°01' W 063°03'0 0.0
2014-Nov-01 22:17N 18°01' W 063°03'0 0.0
2014-Nov-01 21:28N 18°01' W 063°03'0 0.0
2014-Nov-01 19:33N 18°01' W 063°03'0 0.0
2014-Nov-01 18:27N 18°01' W 063°03'0 0.0
2014-Nov-01 16:27N 18°01' W 063°03'3 3.1
2014-Nov-01 15:21N 17°58' W 063°05'  
2014-Oct-28 03:18N 38°10' W 032°54'1917.8
2014-Oct-28 02:14N 38°19' W 032°33'1317.9
2014-Oct-28 01:32N 38°26' W 032°19'4018.2
2014-Oct-27 23:20N 38°45' W 031°34'2318.5
2014-Oct-27 22:05N 38°56' W 031°08'1118.6
2014-Oct-27 21:30N 39°02' W 030°56'1819.0
2014-Oct-27 20:33N 39°11' W 030°36'1919.0
2014-Oct-27 19:33N 39°21' W 030°15'1918.9
2014-Oct-27 18:33N 39°30' W 029°54'1918.6
2014-Oct-27 17:34N 39°40' W 029°33'1818.3
2014-Oct-27 16:33N 39°49' W 029°13'1818.2
2014-Oct-27 15:33N 39°58' W 028°53'1918.3
2014-Oct-27 14:31N 40°08' W 028°31'  
2014-Oct-24 19:20N 49°55' W 003°27'1316.7
2014-Oct-24 18:33N 49°56' W 003°07'2016.9
2014-Oct-24 17:23N 50°01' W 002°37'7519.5
2014-Oct-24 13:32N 49°42' W 000°44'1919.6
2014-Oct-24 12:33N 49°34' W 000°17'1514.8
2014-Oct-24 11:33N 49°29' E 000°05'4 3.4
2014-Oct-24 10:31N 49°29' E 000°10'0 0.0
2014-Oct-24 09:31N 49°29' E 000°10'0 0.0
2014-Oct-24 08:31N 49°29' E 000°10'0 0.0
2014-Oct-24 07:31N 49°29' E 000°10'0 0.0
2014-Oct-24 06:31N 49°29' E 000°10'0 0.0
2014-Oct-24 05:31N 49°29' E 000°10'0 0.0
2014-Oct-24 04:28N 49°29' E 000°10'0 0.0
2014-Oct-24 03:31N 49°29' E 000°10'0 0.0
2014-Oct-24 02:31N 49°29' E 000°10'0 0.0
2014-Oct-24 01:31N 49°29' E 000°10'0 0.0
2014-Oct-24 00:31N 49°29' E 000°10'0 0.0
2014-Oct-23 23:31N 49°29' E 000°10'0 0.0
2014-Oct-23 22:31N 49°29' E 000°10'0 0.0
2014-Oct-23 21:31N 49°29' E 000°10'0 0.0
2014-Oct-23 20:31N 49°29' E 000°10'0 0.0
2014-Oct-23 19:31N 49°29' E 000°10'0 0.0
2014-Oct-23 18:31N 49°29' E 000°10'0 0.0
2014-Oct-23 17:31N 49°29' E 000°10'0 0.0
2014-Oct-23 16:31N 49°29' E 000°10'0 0.0
2014-Oct-23 15:25N 49°29' E 000°10'0 0.0
2014-Oct-23 14:28N 49°29' E 000°10'0 0.0
2014-Oct-23 13:31N 49°29' E 000°10'0 0.0
2014-Oct-23 12:31N 49°29' E 000°10'  
Track history (hours):
 
Tides and Currents Weather Stations Pressure Air Temp Water Temp Dewpoint Dewpoint Depression Visibility Wind Speed Wind Dir Waves Ship Positions

CMA CGM Homere

Last reported at 2014-Nov-02 12:08 UTC. Time now 2014-Nov-24 04:07 UTC.
Position N 17°26' W 063°04'.
Warning: this ship's position is 21 days out of date.

Length 170 m; draft 9.1 m.

Type: Ship (hazmat cat A). MMSI: 235052314.

Date/timePositionNaut miles runAvg speedWind from/ knotsBaromVisibWave heightAir tempDewpointWater temp
2014-Nov-02 12:08N 17°26' W 063°04'1118.2
2014-Nov-02 11:33N 17°36' W 063°05'1818.1
2014-Nov-02 10:33N 17°55' W 063°05'6 3.2
2014-Nov-02 08:32N 18°01' W 063°03'0 0.0
2014-Nov-02 06:15N 18°01' W 063°03'0 0.0
2014-Nov-02 04:20N 18°01' W 063°03'0 0.0
2014-Nov-02 03:09N 18°01' W 063°03'0 0.0
2014-Nov-02 02:23N 18°01' W 063°03'0 0.0
2014-Nov-02 01:29N 18°01' W 063°03'0 0.0
2014-Nov-02 00:17N 18°01' W 063°03'0 0.0
2014-Nov-01 23:26N 18°01' W 063°03'0 0.0
2014-Nov-01 22:17N 18°01' W 063°03'0 0.0
2014-Nov-01 21:28N 18°01' W 063°03'0 0.0
2014-Nov-01 19:33N 18°01' W 063°03'0 0.0
2014-Nov-01 18:27N 18°01' W 063°03'0 0.0
2014-Nov-01 16:27N 18°01' W 063°03'3 3.1
2014-Nov-01 15:21N 17°58' W 063°05'  
2014-Oct-28 03:18N 38°10' W 032°54'1917.8
2014-Oct-28 02:14N 38°19' W 032°33'1317.9
2014-Oct-28 01:32N 38°26' W 032°19'4018.2
2014-Oct-27 23:20N 38°45' W 031°34'2318.5
2014-Oct-27 22:05N 38°56' W 031°08'1118.6
2014-Oct-27 21:30N 39°02' W 030°56'1819.0
2014-Oct-27 20:33N 39°11' W 030°36'1919.0
2014-Oct-27 19:33N 39°21' W 030°15'1918.9
2014-Oct-27 18:33N 39°30' W 029°54'1918.6
2014-Oct-27 17:34N 39°40' W 029°33'1818.3
2014-Oct-27 16:33N 39°49' W 029°13'1818.2
2014-Oct-27 15:33N 39°58' W 028°53'1918.3
2014-Oct-27 14:31N 40°08' W 028°31'  
2014-Oct-24 19:20N 49°55' W 003°27'1316.7
2014-Oct-24 18:33N 49°56' W 003°07'2016.9
2014-Oct-24 17:23N 50°01' W 002°37'7519.5
2014-Oct-24 13:32N 49°42' W 000°44'1919.6
2014-Oct-24 12:33N 49°34' W 000°17'1514.8
2014-Oct-24 11:33N 49°29' E 000°05'4 3.4
2014-Oct-24 10:31N 49°29' E 000°10'0 0.0
2014-Oct-24 09:31N 49°29' E 000°10'0 0.0
2014-Oct-24 08:31N 49°29' E 000°10'0 0.0
2014-Oct-24 07:31N 49°29' E 000°10'0 0.0
2014-Oct-24 06:31N 49°29' E 000°10'0 0.0
2014-Oct-24 05:31N 49°29' E 000°10'0 0.0
2014-Oct-24 04:28N 49°29' E 000°10'0 0.0
2014-Oct-24 03:31N 49°29' E 000°10'0 0.0
2014-Oct-24 02:31N 49°29' E 000°10'0 0.0
2014-Oct-24 01:31N 49°29' E 000°10'0 0.0
2014-Oct-24 00:31N 49°29' E 000°10'0 0.0
2014-Oct-23 23:31N 49°29' E 000°10'0 0.0
2014-Oct-23 22:31N 49°29' E 000°10'0 0.0
2014-Oct-23 21:31N 49°29' E 000°10'0 0.0
2014-Oct-23 20:31N 49°29' E 000°10'0 0.0
2014-Oct-23 19:31N 49°29' E 000°10'0 0.0
2014-Oct-23 18:31N 49°29' E 000°10'0 0.0
2014-Oct-23 17:31N 49°29' E 000°10'0 0.0
2014-Oct-23 16:31N 49°29' E 000°10'0 0.0
2014-Oct-23 15:25N 49°29' E 000°10'0 0.0
2014-Oct-23 14:28N 49°29' E 000°10'0 0.0
2014-Oct-23 13:31N 49°29' E 000°10'0 0.0
2014-Oct-23 12:31N 49°29' E 000°10'  

Dump ship's entire track history